Time;durP1;ratioP1;P1;durP2;ratioP2;P2;SDS_P1;SDS_P2;PMS_P1;PMS_P2;Temp;Humidity;BMP_temperature;BMP_pressure;BME280_temperature;BME280_humidity;BME280_pressure;Samples;Min_cycle;Max_cycle;Signal;HPM_P1;HPM_P2
2023/10/20 00:01:54;;;;;;;7.00;4.53;;;;;;;9.87;76.09;94348.22;5064547;28;20388;-72
2023/10/20 00:04:19;;;;;;;5.40;4.65;;;;;;;9.94;77.07;94367.47;5065510;28;20024;-72
2023/10/20 00:06:45;;;;;;;6.28;4.75;;;;;;;9.99;77.31;94370.50;5065181;28;20039;-72
2023/10/20 00:09:14;;;;;;;5.95;5.05;;;;;;;9.92;77.15;94366.78;5052808;28;20028;-72
2023/10/20 00:11:43;;;;;;;5.80;4.68;;;;;;;10.12;76.85;94365.88;5053475;28;20059;-73
2023/10/20 00:14:09;;;;;;;6.60;5.15;;;;;;;9.64;78.49;94366.59;5070810;28;20539;-72
2023/10/20 00:16:34;;;;;;;5.40;4.55;;;;;;;9.91;77.64;94362.56;5066781;28;20067;-73
2023/10/20 00:19:02;;;;;;;5.57;4.85;;;;;;;9.73;78.00;94360.63;5052715;28;20041;-73
2023/10/20 00:21:29;;;;;;;6.00;5.10;;;;;;;9.50;79.14;94365.19;5069566;28;20033;-72
2023/10/20 00:23:55;;;;;;;6.72;5.00;;;;;;;9.55;78.86;94337.06;5067853;28;20025;-72
2023/10/20 00:26:20;;;;;;;6.25;5.35;;;;;;;9.73;78.38;94355.44;5068813;28;20106;-73
2023/10/20 00:28:46;;;;;;;6.25;4.80;;;;;;;9.76;78.19;94334.41;5070746;28;20126;-73
2023/10/20 00:31:11;;;;;;;6.63;4.80;;;;;;;9.84;78.21;94347.53;5052913;28;20032;-72
2023/10/20 00:33:40;;;;;;;6.40;4.32;;;;;;;10.01;77.29;94327.88;5067506;28;20028;-73
2023/10/20 00:36:09;;;;;;;6.55;4.90;;;;;;;10.06;76.86;94337.88;5069612;28;20036;-73
2023/10/20 00:38:35;;;;;;;6.13;4.85;;;;;;;9.95;77.09;94340.59;5070307;28;20048;-73
2023/10/20 00:41:01;;;;;;;6.75;5.28;;;;;;;10.09;76.62;94316.84;5052949;28;20035;-72
2023/10/20 00:43:36;;;;;;;6.93;5.28;;;;;;;10.13;76.75;94330.34;5067095;28;20139;-73
2023/10/20 00:46:04;;;;;;;5.18;4.50;;;;;;;10.31;76.35;94330.50;5069569;28;20112;-73
2023/10/20 00:48:30;;;;;;;5.40;4.50;;;;;;;10.04;76.55;94325.03;5069090;28;20486;-72
2023/10/20 00:50:56;;;;;;;5.45;4.30;;;;;;;10.08;76.23;94312.59;5051051;28;20710;-73
2023/10/20 00:53:23;;;;;;;7.10;5.32;;;;;;;10.21;76.41;94318.34;5068067;28;20056;-73
2023/10/20 00:55:48;;;;;;;6.85;5.45;;;;;;;10.24;76.47;94327.63;5069246;28;20532;-72
2023/10/20 00:58:14;;;;;;;5.40;4.55;;;;;;;10.14;76.23;94283.50;5068841;28;20107;-72
2023/10/20 01:00:39;;;;;;;6.88;4.88;;;;;;;10.18;76.30;94312.59;5067031;28;20028;-72
2023/10/20 01:03:05;;;;;;;7.57;5.07;;;;;;;10.44;75.62;94318.06;5049229;28;20029;-73
2023/10/20 01:05:30;;;;;;;5.95;4.60;;;;;;;10.23;75.55;94311.22;5050561;28;20032;-72
2023/10/20 01:07:56;;;;;;;6.07;4.85;;;;;;;10.16;76.37;94312.72;5045213;28;20502;-72
2023/10/20 01:10:21;;;;;;;6.45;5.43;;;;;;;9.94;76.96;94320.78;5066956;28;20036;-73
2023/10/20 01:12:47;;;;;;;9.15;6.30;;;;;;;9.91;76.55;94321.03;5068709;28;20033;-72
2023/10/20 01:15:14;;;;;;;6.97;5.30;;;;;;;10.19;75.43;94316.81;5069169;28;20411;-72
2023/10/20 01:17:39;;;;;;;11.25;8.48;;;;;;;10.23;74.90;94336.38;5052282;28;20041;-72
2023/10/20 01:20:06;;;;;;;10.35;7.60;;;;;;;9.99;75.42;94332.38;5066477;28;20039;-72
2023/10/20 01:22:31;;;;;;;9.73;7.03;;;;;;;9.89;75.34;94304.78;5068855;28;20020;-72
2023/10/20 01:24:57;;;;;;;8.55;6.80;;;;;;;9.94;75.15;94315.59;5052518;28;20044;-74
2023/10/20 01:27:22;;;;;;;9.30;6.45;;;;;;;10.05;74.51;94331.03;5067439;28;20017;-72
2023/10/20 01:29:48;;;;;;;8.68;6.32;;;;;;;9.88;74.90;94324.72;5066880;28;20036;-73
2023/10/20 01:32:13;;;;;;;7.20;5.45;;;;;;;9.82;74.67;94317.47;5068840;28;20054;-72
2023/10/20 01:34:40;;;;;;;11.57;7.00;;;;;;;9.56;75.08;94335.31;5052723;28;20032;-73
2023/10/20 01:37:06;;;;;;;7.30;5.60;;;;;;;9.44;76.23;94326.00;5053197;28;20040;-72
2023/10/20 01:39:32;;;;;;;6.65;5.55;;;;;;;9.69;75.73;94325.50;5052272;28;20041;-72
2023/10/20 01:41:57;;;;;;;6.05;5.07;;;;;;;9.58;76.17;94310.06;5052569;28;20033;-72
2023/10/20 01:44:23;;;;;;;7.15;5.35;;;;;;;9.38;77.55;94294.44;5068431;28;20028;-72
2023/10/20 01:46:51;;;;;;;6.45;5.30;;;;;;;9.30;78.21;94290.88;5049747;28;20576;-73
2023/10/20 01:49:19;;;;;;;7.28;5.45;;;;;;;9.22;78.98;94294.16;5036379;28;20033;-72
2023/10/20 01:51:45;;;;;;;6.65;5.40;;;;;;;9.14;79.64;94296.59;5058419;28;20036;-73
2023/10/20 01:54:10;;;;;;;9.65;5.75;;;;;;;9.34;79.02;94276.72;5055707;28;20052;-73
2023/10/20 01:56:35;;;;;;;6.78;5.05;;;;;;;9.29;79.06;94292.66;5070151;28;20035;-72
2023/10/20 01:59:03;;;;;;;6.90;5.45;;;;;;;8.87;79.42;94271.25;5073324;28;20452;-73
2023/10/20 02:01:28;;;;;;;7.20;5.10;;;;;;;9.09;79.17;94276.22;5056028;28;20108;-72
2023/10/20 02:03:54;;;;;;;6.25;5.35;;;;;;;8.90;79.42;94263.22;5071307;28;20032;-73
2023/10/20 02:06:19;;;;;;;8.05;5.85;;;;;;;9.24;77.93;94286.22;5070872;28;20032;-72
2023/10/20 02:08:45;;;;;;;8.18;5.70;;;;;;;8.97;78.08;94269.53;5073151;28;20421;-72
2023/10/20 02:11:10;;;;;;;7.82;5.60;;;;;;;8.97;78.49;94290.25;5054989;28;20438;-72
2023/10/20 02:13:38;;;;;;;7.18;5.80;;;;;;;9.00;78.69;94304.69;5070407;28;20462;-73
2023/10/20 02:16:06;;;;;;;9.48;5.53;;;;;;;8.72;77.96;94260.41;5072341;28;20123;-72
2023/10/20 02:18:31;;;;;;;6.38;5.20;;;;;;;9.18;77.20;94313.50;5071891;28;20044;-72
2023/10/20 02:20:57;;;;;;;7.63;5.72;;;;;;;9.00;77.96;94299.50;5071659;28;20051;-73
2023/10/20 02:23:23;;;;;;;6.68;5.45;;;;;;;9.11;76.85;94309.78;5052748;28;20108;-72
2023/10/20 02:25:59;;;;;;;8.20;6.07;;;;;;;8.97;77.69;94310.13;5071888;28;20115;-73
2023/10/20 02:28:24;;;;;;;6.07;5.10;;;;;;;8.92;78.67;94295.00;5072962;28;20064;-72
2023/10/20 02:30:50;;;;;;;6.95;5.63;;;;;;;8.79;79.60;94297.78;5071842;28;20040;-73
2023/10/20 02:33:15;;;;;;;7.80;5.25;;;;;;;8.88;79.78;94294.41;5069419;28;20043;-72
2023/10/20 02:35:41;;;;;;;9.77;5.13;;;;;;;8.74;81.23;94310.28;5038432;28;20028;-72
2023/10/20 02:38:06;;;;;;;7.80;5.95;;;;;;;8.79;80.85;94295.19;5071824;28;20040;-72
2023/10/20 02:40:31;;;;;;;6.85;5.47;;;;;;;8.58;81.27;94278.84;5070388;28;20055;-72
2023/10/20 02:42:57;;;;;;;7.60;5.60;;;;;;;9.01;80.49;94294.19;5069943;28;20029;-72
2023/10/20 02:45:22;;;;;;;7.15;5.75;;;;;;;8.90;81.31;94307.25;5070783;28;20025;-72
2023/10/20 02:47:50;;;;;;;8.38;5.47;;;;;;;9.01;81.05;94307.16;5064023;28;20489;-72
2023/10/20 02:50:17;;;;;;;8.15;5.50;;;;;;;9.06;80.55;94315.38;5037267;28;20047;-72
2023/10/20 02:52:43;;;;;;;7.95;5.38;;;;;;;9.10;78.61;94316.72;5071240;28;20410;-72
2023/10/20 02:55:08;;;;;;;8.68;5.70;;;;;;;9.05;80.16;94297.34;5054545;28;20039;-72
2023/10/20 02:57:36;;;;;;;7.75;5.53;;;;;;;8.94;81.35;94295.66;5072342;28;20027;-73
2023/10/20 03:00:04;;;;;;;6.45;5.13;;;;;;;8.99;81.69;94265.00;5051660;28;20422;-72
2023/10/20 03:02:29;;;;;;;7.65;5.28;;;;;;;9.08;81.78;94304.84;5038318;28;20550;-72
2023/10/20 03:04:54;;;;;;;8.15;5.43;;;;;;;9.08;81.74;94286.72;5054675;28;20086;-72
2023/10/20 03:07:24;;;;;;;5.55;4.82;;;;;;;9.03;81.95;94286.31;5070050;28;20063;-72
2023/10/20 03:09:51;;;;;;;6.68;5.03;;;;;;;9.25;81.63;94293.03;5065887;28;20091;-73
2023/10/20 03:12:16;;;;;;;8.20;5.10;;;;;;;9.25;81.48;94283.53;5053545;28;20094;-72
2023/10/20 03:14:42;;;;;;;8.30;5.63;;;;;;;9.29;81.44;94271.94;5072446;28;20463;-73
2023/10/20 03:17:09;;;;;;;5.22;4.65;;;;;;;9.23;81.37;94267.28;5069201;28;20033;-73
2023/10/20 03:19:35;;;;;;;7.05;4.95;;;;;;;9.37;81.65;94281.63;5053230;28;20032;-73
2023/10/20 03:22:00;;;;;;;6.03;5.00;;;;;;;9.32;81.41;94268.25;5071921;28;20029;-72
2023/10/20 03:24:25;;;;;;;7.13;6.00;;;;;;;9.31;80.62;94279.59;5070845;28;20060;-72
2023/10/20 03:26:51;;;;;;;9.32;6.72;;;;;;;9.33;79.86;94269.88;5051663;28;20029;-73
2023/10/20 03:29:16;;;;;;;7.13;5.75;;;;;;;9.20;79.94;94275.31;5071501;28;20028;-72
2023/10/20 03:31:43;;;;;;;6.95;5.40;;;;;;;9.31;80.55;94282.19;5070568;28;20052;-72
2023/10/20 03:34:08;;;;;;;6.03;4.88;;;;;;;9.26;79.79;94269.59;5053982;28;20025;-72
2023/10/20 03:36:33;;;;;;;5.82;4.85;;;;;;;9.15;80.35;94260.16;5068600;28;20051;-72
2023/10/20 03:38:59;;;;;;;7.65;5.13;;;;;;;9.34;80.47;94250.81;5053869;28;20028;-73
2023/10/20 03:41:25;;;;;;;8.75;4.95;;;;;;;9.21;80.96;94269.19;5070778;28;20036;-72
2023/10/20 03:43:50;;;;;;;6.63;4.70;;;;;;;9.33;80.28;94270.72;5071722;28;20039;-73
2023/10/20 03:46:18;;;;;;;6.82;5.18;;;;;;;9.24;79.72;94258.53;5050342;28;20422;-72
2023/10/20 03:48:43;;;;;;;5.22;4.10;;;;;;;9.26;79.40;94277.38;5053811;28;20037;-72
2023/10/20 03:51:11;;;;;;;6.93;4.72;;;;;;;9.07;79.53;94256.59;5070154;28;20036;-72
2023/10/20 03:53:46;;;;;;;6.18;4.82;;;;;;;8.98;79.46;94262.56;5065331;28;20166;-72
2023/10/20 03:56:11;;;;;;;5.88;4.40;;;;;;;9.07;79.36;94270.34;5071155;28;20029;-72
2023/10/20 03:58:37;;;;;;;5.72;4.55;;;;;;;8.45;81.26;94248.81;5070035;28;20027;-73
2023/10/20 04:01:02;;;;;;;6.72;4.97;;;;;;;8.73;81.59;94242.13;5069418;28;20044;-72
2023/10/20 04:03:30;;;;;;;8.27;5.13;;;;;;;8.71;81.66;94244.03;5050435;28;20101;-73
2023/10/20 04:05:55;;;;;;;6.72;4.68;;;;;;;8.93;80.71;94247.41;5070944;28;20565;-72
2023/10/20 04:08:21;;;;;;;6.18;4.72;;;;;;;8.63;81.25;94222.31;5071242;28;20054;-72
2023/10/20 04:10:47;;;;;;;6.65;4.80;;;;;;;8.71;80.20;94210.38;5053025;28;20041;-72
2023/10/20 04:13:12;;;;;;;6.22;5.07;;;;;;;8.87;80.10;94245.34;5067530;28;20040;-72
2023/10/20 04:15:39;;;;;;;5.90;5.07;;;;;;;8.68;81.11;94238.31;5069202;28;20550;-72
2023/10/20 04:18:05;;;;;;;5.43;4.45;;;;;;;8.46;81.43;94234.91;5070938;28;20072;-72
2023/10/20 04:20:31;;;;;;;7.55;4.93;;;;;;;8.52;81.40;94277.59;5051273;28;20056;-72
2023/10/20 04:22:58;;;;;;;5.97;4.75;;;;;;;8.77;79.82;94267.78;5079150;28;20040;-73
2023/10/20 04:25:27;;;;;;;5.70;4.90;;;;;;;7.87;80.77;94240.63;5053268;28;20025;-72
2023/10/20 04:28:01;;;;;;;10.50;7.05;;;;;;;8.21;81.42;94271.50;5069690;28;20090;-72
2023/10/20 04:57:53;;;;;;;10.63;6.47;;;;;;;7.95;85.89;94243.41;5067994;28;20038;-72
2023/10/20 05:08:04;;;;;;;8.68;5.72;;;;;;;8.42;84.58;94266.38;5050573;28;20506;-72
2023/10/20 05:10:29;;;;;;;10.52;6.93;;;;;;;8.42;83.76;94256.84;5054067;28;20039;-72
2023/10/20 05:12:55;;;;;;;10.57;7.75;;;;;;;8.38;82.90;94257.19;5073151;28;20036;-72
2023/10/20 05:15:21;;;;;;;10.18;7.28;;;;;;;8.52;82.52;94277.59;5054502;28;20035;-72
2023/10/20 05:17:46;;;;;;;10.27;7.28;;;;;;;7.88;85.79;94241.44;5055565;28;20093;-73
2023/10/20 05:20:13;;;;;;;9.15;6.97;;;;;;;8.01;85.21;94312.75;5072762;28;20051;-72
2023/10/20 05:22:41;;;;;;;10.43;6.30;;;;;;;7.96;85.75;94242.47;5070138;28;20020;-78
2023/10/20 05:25:08;;;;;;;10.90;8.00;;;;;;;8.07;85.60;94314.84;5052350;28;20095;-75
2023/10/20 05:27:33;;;;;;;11.40;9.02;;;;;;;8.23;85.27;94273.03;5051321;28;20031;-75
2023/10/20 05:29:59;;;;;;;15.88;11.07;;;;;;;8.20;84.77;94288.81;5069194;28;20036;-72
2023/10/20 05:32:24;;;;;;;13.55;11.10;;;;;;;8.55;83.34;94297.22;5067691;28;20039;-72
2023/10/20 05:34:54;;;;;;;13.02;10.98;;;;;;;8.32;83.39;94293.94;5034621;28;20044;-72
2023/10/20 05:37:23;;;;;;;15.38;11.75;;;;;;;8.22;83.68;94319.75;5067166;28;20024;-72
2023/10/20 05:39:48;;;;;;;19.50;13.65;;;;;;;8.20;84.02;94304.34;5070280;28;20551;-72
2023/10/20 05:42:13;;;;;;;17.90;13.38;;;;;;;8.25;83.57;94329.84;5069135;28;20020;-72
2023/10/20 05:44:48;;;;;;;15.60;12.65;;;;;;;8.37;82.96;94318.47;5066849;28;20051;-72
2023/10/20 05:47:16;;;;;;;37.22;24.13;;;;;;;8.53;81.75;94330.22;5066415;28;20021;-72
2023/10/20 05:49:41;;;;;;;23.55;16.73;;;;;;;8.72;81.32;94317.38;5053005;28;20152;-72
2023/10/20 05:52:07;;;;;;;16.77;13.02;;;;;;;8.46;81.43;94325.50;5066593;28;20451;-72
2023/10/20 05:54:32;;;;;;;18.45;13.75;;;;;;;8.32;82.11;94310.28;5068692;28;20587;-72
2023/10/20 05:56:57;;;;;;;16.77;13.77;;;;;;;8.67;81.04;94324.72;5066250;28;20029;-72
2023/10/20 05:59:23;;;;;;;15.73;12.85;;;;;;;8.56;81.64;94317.81;5052352;28;20032;-72
2023/10/20 06:01:48;;;;;;;19.95;13.68;;;;;;;8.71;81.68;94316.53;5050599;28;20020;-72
2023/10/20 06:04:14;;;;;;;16.40;11.70;;;;;;;8.61;82.22;94291.53;5068215;28;20036;-72
2023/10/20 06:06:39;;;;;;;13.10;10.95;;;;;;;8.66;83.14;94317.88;5067798;28;20044;-72
2023/10/20 06:09:06;;;;;;;16.13;11.60;;;;;;;8.88;82.21;94297.00;5067990;28;20414;-72
2023/10/20 06:11:31;;;;;;;14.75;9.05;;;;;;;8.73;82.92;94304.28;5064366;28;20499;-72
2023/10/20 06:13:57;;;;;;;10.73;8.63;;;;;;;8.99;82.91;94308.22;5068685;28;20043;-72
2023/10/20 06:16:24;;;;;;;12.48;10.05;;;;;;;9.04;82.67;94299.13;5067545;28;20059;-72
2023/10/20 06:18:49;;;;;;;11.77;9.85;;;;;;;9.25;81.97;94318.97;5068152;28;20463;-72
2023/10/20 06:21:16;;;;;;;12.15;8.20;;;;;;;9.36;82.49;94317.13;5067919;28;20039;-72
2023/10/20 06:23:42;;;;;;;13.00;9.05;;;;;;;9.42;82.25;94299.38;5065969;28;20070;-72
2023/10/20 06:26:07;;;;;;;12.05;9.40;;;;;;;9.53;82.48;94326.03;5050818;28;20045;-72
2023/10/20 06:28:33;;;;;;;12.73;9.40;;;;;;;9.68;82.55;94297.94;5066897;28;20106;-73
2023/10/20 06:31:19;;;;;;;16.10;10.57;;;;;;;9.88;82.14;94334.28;5067757;28;20055;-73
2023/10/20 06:33:46;;;;;;;12.40;8.38;;;;;;;10.20;80.75;94302.91;5063066;28;20507;-72
2023/10/20 06:36:16;;;;;;;12.15;8.18;;;;;;;10.45;79.46;94309.34;5068389;28;20115;-73
2023/10/20 06:41:07;;;;;;;10.00;6.85;;;;;;;11.31;77.26;94306.63;5050037;28;20059;-72
2023/10/20 06:43:32;;;;;;;8.25;5.60;;;;;;;11.58;77.82;94319.63;5066366;28;20440;-72
2023/10/20 06:45:59;;;;;;;9.02;6.55;;;;;;;11.87;75.54;94278.81;5080418;28;20452;-72
2023/10/20 06:48:24;;;;;;;9.65;6.50;;;;;;;11.95;75.82;94318.78;5036120;28;20021;-75
2023/10/20 06:50:50;;;;;;;10.32;7.07;;;;;;;12.18;74.97;94302.72;5065121;28;20037;-74
2023/10/20 06:53:15;;;;;;;6.70;5.45;;;;;;;12.35;74.90;94306.28;5040336;28;20029;-73
2023/10/20 06:55:42;;;;;;;7.90;5.60;;;;;;;12.40;73.64;94271.00;5042513;28;20025;-76
2023/10/20 06:58:09;;;;;;;7.80;5.80;;;;;;;12.97;72.02;94302.66;5045393;28;20028;-75
2023/10/20 07:00:35;;;;;;;9.18;5.82;;;;;;;13.25;70.23;94309.50;5056051;28;20057;-73
2023/10/20 07:03:01;;;;;;;9.55;5.60;;;;;;;13.43;68.51;94317.25;5070255;28;20482;-73
2023/10/20 07:05:26;;;;;;;7.32;5.47;;;;;;;13.37;68.21;94303.91;5065292;28;20314;-73
2023/10/20 07:07:52;;;;;;;10.45;5.93;;;;;;;13.92;65.31;94314.84;5047332;28;20032;-73
2023/10/20 07:10:18;;;;;;;8.20;5.75;;;;;;;14.02;66.48;94312.91;5063068;28;20040;-73
2023/10/20 07:12:44;;;;;;;7.72;6.32;;;;;;;14.03;65.19;94309.31;5032032;28;20054;-73
2023/10/20 07:15:09;;;;;;;9.63;6.75;;;;;;;14.06;64.02;94309.81;5050853;28;20029;-74
2023/10/20 07:17:35;;;;;;;8.30;6.38;;;;;;;14.48;64.17;94335.00;5050434;28;20140;-73
2023/10/20 07:20:00;;;;;;;8.63;6.30;;;;;;;14.64;62.82;94300.25;5067303;28;20112;-73
2023/10/20 07:22:28;;;;;;;9.30;6.05;;;;;;;15.11;60.73;94307.38;5049249;28;20033;-73
2023/10/20 07:24:55;;;;;;;7.32;5.85;;;;;;;15.09;61.63;94300.69;5048767;28;20028;-73
2023/10/20 07:27:22;;;;;;;11.82;7.20;;;;;;;15.79;59.24;94310.44;5065078;28;20029;-72
2023/10/20 07:29:47;;;;;;;10.02;6.82;;;;;;;16.56;56.86;94305.22;5049025;28;20423;-72
2023/10/20 07:32:13;;;;;;;11.20;6.93;;;;;;;16.58;56.75;94302.44;5049817;28;20043;-72
2023/10/20 07:34:38;;;;;;;11.00;7.45;;;;;;;16.76;57.45;94318.66;5048232;28;20024;-73
2023/10/20 07:37:04;;;;;;;12.98;8.57;;;;;;;17.14;56.39;94319.50;5048578;28;20033;-72
2023/10/20 07:39:30;;;;;;;7.97;6.68;;;;;;;17.04;55.82;94302.38;5066886;28;20079;-73
2023/10/20 07:41:55;;;;;;;12.50;8.05;;;;;;;17.32;55.43;94311.28;5051664;28;20449;-72
2023/10/20 07:44:21;;;;;;;11.38;7.80;;;;;;;17.40;55.48;94313.81;5050658;28;20025;-72
2023/10/20 07:46:46;;;;;;;10.32;7.05;;;;;;;17.67;54.94;94337.00;5050462;28;20036;-73
2023/10/20 07:49:11;;;;;;;10.30;6.90;;;;;;;17.25;55.60;94309.56;5050425;28;20025;-73
2023/10/20 07:51:40;;;;;;;9.07;6.60;;;;;;;17.04;55.91;94318.94;5050183;28;20033;-72
2023/10/20 07:54:07;;;;;;;11.75;6.57;;;;;;;16.96;56.07;94309.31;5051728;28;20068;-72
2023/10/20 07:56:32;;;;;;;7.68;6.55;;;;;;;17.03;55.76;94300.78;5066774;28;20466;-72
2023/10/20 07:58:58;;;;;;;10.48;6.90;;;;;;;16.53;56.78;94297.72;5050224;28;20021;-73
2023/10/20 08:01:23;;;;;;;7.82;5.57;;;;;;;16.58;56.92;94295.38;5049820;28;20056;-73
2023/10/20 08:03:49;;;;;;;8.20;6.05;;;;;;;16.28;57.98;94294.47;5033437;28;20025;-72
2023/10/20 08:06:15;;;;;;;8.00;5.85;;;;;;;16.28;57.97;94315.44;5050099;28;20600;-73
2023/10/20 08:08:40;;;;;;;7.15;5.93;;;;;;;16.35;58.21;94326.00;5049950;28;20063;-72
2023/10/20 08:11:08;;;;;;;8.23;6.00;;;;;;;16.42;57.87;94272.72;5050031;28;20036;-72
2023/10/20 08:13:34;;;;;;;8.27;5.60;;;;;;;16.12;58.02;94294.56;5066186;28;20028;-72
2023/10/20 08:16:01;;;;;;;6.93;5.97;;;;;;;15.96;59.99;94306.75;5066604;28;20028;-73
2023/10/20 08:18:28;;;;;;;9.13;5.95;;;;;;;16.03;59.72;94275.47;5066370;28;20056;-73
2023/10/20 08:21:04;;;;;;;8.73;6.20;;;;;;;16.05;58.63;94291.84;5049722;28;20419;-73
2023/10/20 08:23:31;;;;;;;8.55;5.30;;;;;;;16.16;59.08;94283.56;5065876;28;20044;-73
2023/10/20 08:25:56;;;;;;;8.18;5.82;;;;;;;16.29;58.19;94294.28;5066377;28;20029;-73
2023/10/20 08:28:22;;;;;;;7.40;5.57;;;;;;;16.42;58.68;94309.44;5051052;28;20044;-73
2023/10/20 08:30:47;;;;;;;7.88;5.45;;;;;;;16.31;57.80;94302.78;5049661;28;20075;-72
2023/10/20 08:33:13;;;;;;;6.90;5.18;;;;;;;16.31;57.93;94310.66;5049403;28;20055;-73
2023/10/20 08:35:38;;;;;;;8.98;4.72;;;;;;;16.52;57.86;94288.22;5050875;28;20029;-73
2023/10/20 08:38:04;;;;;;;7.28;5.20;;;;;;;16.34;57.58;94304.25;5049410;28;20480;-73
2023/10/20 08:40:33;;;;;;;6.53;5.07;;;;;;;16.52;57.43;94293.47;5050783;28;20412;-72
2023/10/20 08:43:02;;;;;;;7.38;4.82;;;;;;;16.50;57.88;94296.25;5049361;28;20036;-72
2023/10/20 08:45:27;;;;;;;5.22;4.57;;;;;;;16.62;56.13;94282.72;5048951;28;20026;-72
2023/10/20 08:47:53;;;;;;;8.20;4.72;;;;;;;16.47;56.50;94291.38;5066016;28;20424;-72
2023/10/20 08:50:18;;;;;;;8.25;4.50;;;;;;;16.75;55.76;94288.19;5066209;28;20392;-73
2023/10/20 08:52:44;;;;;;;5.60;4.28;;;;;;;16.60;56.09;94284.72;5049301;28;20040;-73
2023/10/20 08:55:10;;;;;;;7.30;4.20;;;;;;;16.68;55.27;94292.50;5032816;28;20090;-72
2023/10/20 08:57:35;;;;;;;7.80;4.53;;;;;;;16.68;55.71;94293.31;5049347;28;20029;-72
2023/10/20 09:00:01;;;;;;;10.10;4.78;;;;;;;16.90;54.47;94283.00;5049472;28;20070;-72
2023/10/20 09:02:38;;;;;;;8.48;4.43;;;;;;;16.85;55.46;94274.84;5049361;28;20502;-72
2023/10/20 09:05:04;;;;;;;6.95;3.97;;;;;;;17.13;53.92;94275.06;5049379;28;20029;-72
2023/10/20 09:07:31;;;;;;;11.60;4.68;;;;;;;17.17;54.62;94276.34;5049653;28;20082;-72
2023/10/20 09:09:56;;;;;;;10.35;5.03;;;;;;;17.09;54.60;94279.06;5050503;28;20056;-72
2023/10/20 09:12:22;;;;;;;5.10;4.40;;;;;;;17.52;54.53;94285.28;5049192;28;20056;-73
2023/10/20 09:14:47;;;;;;;6.28;4.20;;;;;;;17.45;53.77;94280.97;5066063;28;20029;-72
2023/10/20 09:17:23;;;;;;;8.90;4.38;;;;;;;17.48;53.86;94277.97;5048948;28;20036;-72
2023/10/20 09:19:48;;;;;;;7.07;4.78;;;;;;;17.63;54.30;94287.47;5049421;28;20040;-72
2023/10/20 09:22:13;;;;;;;7.38;4.65;;;;;;;17.57;52.96;94264.56;5049177;28;20037;-72
2023/10/20 09:24:40;;;;;;;8.77;4.28;;;;;;;17.56;52.67;94272.63;5049307;28;20036;-72
2023/10/20 09:27:07;;;;;;;6.03;3.92;;;;;;;17.62;53.95;94280.56;5065824;28;20064;-72
2023/10/20 09:29:32;;;;;;;7.35;4.10;;;;;;;17.50;53.00;94241.84;5049130;28;20415;-73
2023/10/20 09:31:59;;;;;;;6.95;3.90;;;;;;;17.56;53.72;94270.81;5065647;28;20514;-72
2023/10/20 09:34:24;;;;;;;7.55;3.70;;;;;;;17.70;52.36;94258.66;5065959;28;20053;-73
2023/10/20 09:36:50;;;;;;;4.68;3.88;;;;;;;17.73;52.82;94249.59;5048976;28;20473;-72
2023/10/20 09:39:24;;;;;;;6.15;3.95;;;;;;;17.77;52.56;94254.28;5065788;28;20037;-72
2023/10/20 09:41:50;;;;;;;7.47;4.20;;;;;;;17.65;52.76;94243.44;5049033;28;20076;-72
2023/10/20 09:44:22;;;;;;;8.05;4.05;;;;;;;17.70;52.25;94195.63;5065778;28;20162;-72
2023/10/20 09:47:03;;;;;;;8.02;3.60;;;;;;;18.02;51.53;94225.06;5065245;28;20033;-72
2023/10/20 09:49:31;;;;;;;6.03;3.90;;;;;;;18.09;51.65;94212.81;5065314;28;20029;-72
2023/10/20 09:51:56;;;;;;;8.68;4.20;;;;;;;18.15;51.87;94221.78;5065184;28;20075;-73
2023/10/20 09:54:26;;;;;;;6.22;3.75;;;;;;;18.15;51.88;94217.31;5065729;28;20033;-72
2023/10/20 09:56:51;;;;;;;7.93;3.65;;;;;;;18.14;51.49;94210.47;5049389;28;20025;-72
2023/10/20 09:59:20;;;;;;;9.27;3.90;;;;;;;18.27;51.31;94222.88;5052491;28;20410;-72
2023/10/20 10:01:46;;;;;;;8.30;3.70;;;;;;;17.97;51.36;94195.91;5068825;28;20029;-72
2023/10/20 10:04:11;;;;;;;5.80;3.70;;;;;;;18.06;51.96;94219.28;5069024;28;20475;-72
2023/10/20 10:06:37;;;;;;;7.22;3.72;;;;;;;18.33;50.86;94216.91;5052384;28;20055;-72
2023/10/20 10:09:06;;;;;;;7.38;3.60;;;;;;;18.47;51.18;94212.53;5068922;28;20071;-72
2023/10/20 10:11:37;;;;;;;5.28;3.50;;;;;;;18.65;50.24;94210.28;5068420;28;20035;-72
2023/10/20 10:14:04;;;;;;;5.57;3.15;;;;;;;18.81;49.80;94221.56;5052325;28;20037;-72
2023/10/20 10:16:30;;;;;;;5.90;3.35;;;;;;;18.92;49.28;94189.44;5052086;28;20036;-72
2023/10/20 10:19:06;;;;;;;5.47;3.22;;;;;;;18.80;50.08;94189.16;5052123;28;20057;-72
2023/10/20 10:21:32;;;;;;;9.85;3.50;;;;;;;18.93;48.88;94197.13;5051882;28;20029;-72
2023/10/20 10:24:17;;;;;;;6.40;3.13;;;;;;;18.96;49.66;94201.19;5068714;28;20040;-72
2023/10/20 10:26:59;;;;;;;7.28;3.22;;;;;;;19.13;49.01;94197.25;5068727;28;20108;-73
2023/10/20 10:29:53;;;;;;;5.22;2.90;;;;;;;19.24;49.19;94188.00;5052067;28;20039;-73
2023/10/20 10:32:22;;;;;;;6.32;3.17;;;;;;;19.14;49.19;94180.47;5051683;28;20033;-72
2023/10/20 10:34:53;;;;;;;6.63;3.10;;;;;;;19.29;48.87;94193.47;5068214;28;20035;-72
2023/10/20 10:37:30;;;;;;;7.45;3.15;;;;;;;19.18;49.17;94165.88;5035500;28;20403;-72
2023/10/20 10:40:09;;;;;;;5.25;2.90;;;;;;;19.46;48.91;94159.72;5051164;28;20108;-72
2023/10/20 10:42:45;;;;;;;7.70;2.92;;;;;;;19.51;49.04;94154.69;5067788;28;20041;-72
2023/10/20 10:45:34;;;;;;;7.05;2.88;;;;;;;19.59;48.32;94157.13;5068110;28;20035;-72
2023/10/20 10:48:07;;;;;;;8.43;2.90;;;;;;;19.57;47.97;94143.34;5067187;28;20513;-72
2023/10/20 10:50:33;;;;;;;11.20;3.03;;;;;;;19.73;47.28;94163.28;5051567;28;20518;-72
2023/10/20 10:52:59;;;;;;;9.52;3.22;;;;;;;19.93;46.56;94157.25;5034536;28;20037;-72
2023/10/20 10:55:25;;;;;;;5.88;3.10;;;;;;;19.97;46.81;94148.72;5068040;28;20563;-72
2023/10/20 10:57:51;;;;;;;6.90;2.90;;;;;;;19.90;46.98;94129.47;5051166;28;20040;-73
2023/10/20 11:00:16;;;;;;;8.30;3.20;;;;;;;19.81;48.21;94125.41;5052604;28;20028;-72
2023/10/20 11:02:43;;;;;;;8.32;3.08;;;;;;;19.98;47.07;94145.09;5067867;28;20079;-73
2023/10/20 11:05:08;;;;;;;9.15;3.42;;;;;;;20.04;47.80;94139.00;5067873;28;20525;-72
2023/10/20 11:07:34;;;;;;;9.90;3.05;;;;;;;20.15;46.18;94134.97;5067708;28;20025;-73
2023/10/20 11:10:00;;;;;;;11.32;3.40;;;;;;;20.20;45.64;94142.28;5050443;28;20040;-72
2023/10/20 11:12:26;;;;;;;7.88;2.90;;;;;;;20.22;45.60;94134.97;5051015;28;20032;-72
2023/10/20 11:14:57;;;;;;;10.73;3.40;;;;;;;20.21;46.73;94133.34;5052791;28;20028;-72
2023/10/20 11:17:22;;;;;;;;;;;;;;;20.33;46.12;94141.47;5052584;28;20041;-72
2023/10/20 11:19:47;;;;;;;6.97;3.20;;;;;;;20.50;44.24;94118.91;5051177;28;19920;-72
2023/10/20 11:22:15;;;;;;;6.55;3.10;;;;;;;20.68;45.29;94129.69;5067546;28;20037;-72
2023/10/20 11:24:40;;;;;;;13.05;4.40;;;;;;;20.77;44.47;94116.28;5051145;28;20040;-72
2023/10/20 11:27:06;;;;;;;6.28;3.13;;;;;;;20.95;44.15;94121.72;5050799;28;20482;-73
2023/10/20 11:29:32;;;;;;;7.93;3.15;;;;;;;21.10;43.62;94108.28;5067517;28;20040;-72
2023/10/20 11:32:07;;;;;;;12.07;3.55;;;;;;;21.17;44.14;94119.59;5067186;28;20029;-72
2023/10/20 11:34:36;;;;;;;10.85;4.10;;;;;;;21.42;43.42;94104.72;5066701;28;20510;-72
2023/10/20 11:37:02;;;;;;;10.20;4.82;;;;;;;21.61;42.00;94081.81;5066819;28;20021;-72
2023/10/20 11:39:28;;;;;;;11.57;3.20;;;;;;;21.89;44.35;94116.84;5067274;28;20466;-72
2023/10/20 11:41:54;;;;;;;8.50;3.78;;;;;;;21.80;43.23;94088.00;5050374;28;20025;-72
2023/10/20 11:44:20;;;;;;;6.80;3.13;;;;;;;21.97;39.74;94100.72;5050451;28;20040;-72
2023/10/20 11:46:46;;;;;;;9.32;3.17;;;;;;;22.07;39.53;94106.34;5051680;28;20491;-72
2023/10/20 11:49:12;;;;;;;10.57;3.03;;;;;;;22.29;40.51;94120.84;5051922;28;20043;-72
2023/10/20 11:51:40;;;;;;;7.55;3.33;;;;;;;22.38;41.20;94110.00;5050385;28;20587;-72
2023/10/20 11:54:06;;;;;;;5.07;3.00;;;;;;;22.49;41.04;94109.28;5050352;28;20029;-72
2023/10/20 11:56:32;;;;;;;10.65;3.20;;;;;;;22.47;41.43;94098.09;5066963;28;20028;-72
2023/10/20 11:58:58;;;;;;;10.10;3.05;;;;;;;22.55;40.42;94097.84;5050145;28;20059;-72
2023/10/20 12:01:23;;;;;;;7.80;2.90;;;;;;;22.37;38.06;94079.25;5051359;28;20036;-72
2023/10/20 12:03:49;;;;;;;10.85;3.20;;;;;;;22.45;38.27;94085.09;5066825;28;20037;-72
2023/10/20 12:06:14;;;;;;;11.00;2.40;;;;;;;22.44;35.09;94066.78;5033502;28;20021;-72
2023/10/20 12:08:41;;;;;;;10.13;2.30;;;;;;;23.37;33.64;94079.03;5050097;28;20037;-72
2023/10/20 12:11:07;;;;;;;10.00;2.38;;;;;;;23.36;34.05;94083.50;5066454;28;20560;-72